Time;durP1;ratioP1;P1;durP2;ratioP2;P2;SDS_P1;SDS_P2;PMS_P1;PMS_P2;Temp;Humidity;BMP_temperature;BMP_pressure;BME280_temperature;BME280_humidity;BME280_pressure;Samples;Min_cycle;Max_cycle;Signal;HPM_P1;HPM_P2
2023/03/25 00:00:24;;;;;;;4.63;3.47;;;8.90;99.90;;;;;;5062986;28;20194;-50
2023/03/25 00:02:52;;;;;;;5.60;3.33;;;8.90;99.90;;;;;;5050073;28;20209;-52
2023/03/25 00:05:20;;;;;;;5.17;3.40;;;8.90;99.90;;;;;;5053949;28;20198;-60
2023/03/25 00:07:50;;;;;;;4.77;3.67;;;8.90;99.90;;;;;;5061172;28;20211;-51
2023/03/25 00:10:17;;;;;;;7.13;4.00;;;8.90;99.90;;;;;;5059273;28;20191;-56
2023/03/25 00:12:44;;;;;;;7.10;3.50;;;8.80;99.90;;;;;;5050540;28;20265;-52
2023/03/25 00:15:12;;;;;;;4.87;3.57;;;8.80;99.90;;;;;;5059253;28;20203;-50
2023/03/25 00:17:41;;;;;;;4.50;4.03;;;8.80;99.90;;;;;;5038838;28;20218;-55
2023/03/25 00:20:09;;;;;;;4.03;3.40;;;8.80;99.90;;;;;;5062299;28;20309;-55
2023/03/25 00:22:39;;;;;;;8.27;3.80;;;8.80;99.90;;;;;;5056075;28;20194;-54
2023/03/25 00:25:08;;;;;;;5.10;3.23;;;8.80;99.90;;;;;;5060084;28;20678;-54
2023/03/25 00:27:35;;;;;;;5.97;3.33;;;8.80;99.90;;;;;;5061946;28;20227;-56
2023/03/25 00:30:03;;;;;;;5.87;3.80;;;8.80;99.90;;;;;;5061103;28;20205;-50
2023/03/25 00:32:30;;;;;;;6.70;3.87;;;8.80;99.90;;;;;;5079171;28;20227;-59
2023/03/25 00:34:58;;;;;;;6.53;3.90;;;8.80;99.90;;;;;;5063942;28;20661;-48
2023/03/25 00:37:26;;;;;;;3.93;3.43;;;8.70;99.90;;;;;;5096233;28;20234;-56
2023/03/25 00:39:53;;;;;;;4.13;3.07;;;8.70;99.90;;;;;;5063218;28;20186;-51
2023/03/25 00:42:24;;;;;;;5.40;3.60;;;8.70;99.90;;;;;;5063576;28;20301;-58
2023/03/25 00:44:52;;;;;;;6.93;4.23;;;8.70;99.90;;;;;;5056466;28;20812;-48
2023/03/25 00:47:20;;;;;;;5.53;3.70;;;8.70;99.90;;;;;;5059010;28;20280;-59
2023/03/25 00:49:48;;;;;;;10.73;4.10;;;8.70;99.90;;;;;;5053685;28;20201;-53
2023/03/25 00:52:17;;;;;;;6.97;3.83;;;8.70;99.90;;;;;;5064128;28;20917;-55
2023/03/25 00:54:44;;;;;;;5.10;4.07;;;8.70;99.90;;;;;;5062134;28;20195;-49
2023/03/25 00:57:11;;;;;;;5.80;4.47;;;8.70;99.90;;;;;;5065837;28;20237;-50
2023/03/25 00:59:38;;;;;;;6.73;4.53;;;8.70;99.90;;;;;;5051678;28;20276;-48
2023/03/25 01:02:05;;;;;;;4.27;3.60;;;8.70;99.90;;;;;;5064982;28;20195;-51
2023/03/25 01:04:32;;;;;;;5.87;3.50;;;8.70;99.90;;;;;;5046011;28;20678;-57
2023/03/25 01:07:00;;;;;;;6.47;4.40;;;8.70;99.90;;;;;;5097784;28;20237;-52
2023/03/25 01:09:28;;;;;;;6.43;4.30;;;8.70;99.90;;;;;;5095581;28;20206;-58
2023/03/25 01:11:55;;;;;;;7.13;4.30;;;8.70;99.90;;;;;;5064212;28;20219;-51
2023/03/25 01:14:26;;;;;;;7.07;4.40;;;8.70;99.90;;;;;;5063823;28;20207;-57
2023/03/25 01:16:53;;;;;;;4.40;3.70;;;8.80;99.90;;;;;;5060699;28;20219;-53
2023/03/25 01:19:19;;;;;;;7.70;4.37;;;8.80;99.90;;;;;;5059789;28;20201;-60
2023/03/25 01:21:46;;;;;;;8.63;4.60;;;8.80;99.90;;;;;;5051080;28;20213;-49
2023/03/25 01:24:15;;;;;;;7.83;4.50;;;8.80;99.90;;;;;;5065036;28;20190;-48
2023/03/25 01:26:44;;;;;;;8.83;4.47;;;8.90;99.90;;;;;;5094237;28;20233;-50
2023/03/25 01:29:12;;;;;;;8.17;4.20;;;8.90;99.90;;;;;;5063419;28;20190;-48
2023/03/25 01:31:39;;;;;;;8.77;4.40;;;8.90;99.90;;;;;;5056146;28;20270;-51
2023/03/25 01:34:07;;;;;;;7.63;4.57;;;9.00;99.90;;;;;;5063374;28;20226;-54
2023/03/25 01:36:36;;;;;;;6.10;3.87;;;9.00;99.90;;;;;;5046758;28;20210;-58
2023/03/25 01:39:05;;;;;;;6.63;3.80;;;9.00;99.90;;;;;;5097431;28;20665;-49
2023/03/25 01:41:33;;;;;;;4.30;3.53;;;9.00;99.90;;;;;;5061625;28;20190;-56
2023/03/25 01:44:07;;;;;;;5.33;3.60;;;9.00;99.90;;;;;;5064616;28;20696;-49
2023/03/25 01:46:34;;;;;;;6.37;3.90;;;9.10;99.90;;;;;;5059914;28;20277;-58
2023/03/25 01:49:04;;;;;;;6.10;3.97;;;9.10;99.90;;;;;;5064260;28;20203;-50
2023/03/25 01:51:35;;;;;;;5.03;3.40;;;9.20;99.90;;;;;;5047469;28;20211;-57
2023/03/25 01:54:03;;;;;;;7.60;3.77;;;9.20;99.90;;;;;;5062063;28;20202;-53
2023/03/25 01:56:33;;;;;;;9.60;3.90;;;9.20;99.90;;;;;;5061306;28;20200;-56
2023/03/25 01:59:05;;;;;;;7.57;3.67;;;9.20;99.90;;;;;;5096382;28;20208;-50
2023/03/25 02:01:33;;;;;;;7.97;3.57;;;9.30;99.90;;;;;;5059103;28;20290;-58
2023/03/25 02:04:08;;;;;;;6.20;3.37;;;9.30;99.90;;;;;;5064074;28;20754;-48
2023/03/25 02:06:42;;;;;;;7.60;3.40;;;9.30;99.90;;;;;;5045003;28;20226;-56
2023/03/25 02:09:10;;;;;;;5.73;3.80;;;9.40;99.90;;;;;;5058842;28;20361;-48
2023/03/25 02:11:38;;;;;;;7.83;3.23;;;9.40;99.90;;;;;;5085656;28;20959;-50
2023/03/25 02:14:08;;;;;;;6.47;3.20;;;9.40;99.90;;;;;;5062819;28;20198;-51
2023/03/25 02:16:46;;;;;;;6.60;3.30;;;9.50;99.90;;;;;;5057698;28;20272;-55
2023/03/25 02:19:39;;;;;;;6.80;3.60;;;9.50;99.90;;;;;;5063202;28;20256;-54
2023/03/25 02:22:48;;;;;;;3.80;2.83;;;9.40;99.90;;;;;;5063612;28;20583;-49
2023/03/25 02:26:02;;;;;;;5.80;3.40;;;9.40;99.90;;;;;;5062508;28;20194;-56
2023/03/25 02:28:38;;;;;;;6.90;3.20;;;9.40;99.90;;;;;;5023674;28;20230;-56
2023/03/25 02:31:27;;;;;;;5.70;2.90;;;9.40;99.90;;;;;;5062092;28;20707;-55
2023/03/25 02:34:12;;;;;;;6.40;3.57;;;9.40;99.90;;;;;;5061265;28;20187;-49
2023/03/25 02:37:03;;;;;;;3.87;3.03;;;9.40;99.90;;;;;;5059603;28;20210;-49
2023/03/25 02:39:40;;;;;;;4.63;3.00;;;9.40;99.90;;;;;;5043754;28;20653;-57
2023/03/25 02:42:16;;;;;;;5.27;3.60;;;9.40;99.90;;;;;;5063431;28;20206;-49
2023/03/25 02:44:54;;;;;;;5.20;3.10;;;9.30;99.90;;;;;;5092614;28;20207;-50
2023/03/25 02:47:24;;;;;;;5.67;3.13;;;9.30;99.90;;;;;;5060101;28;20222;-56
2023/03/25 02:49:55;;;;;;;4.30;2.90;;;9.30;99.90;;;;;;5061897;28;20198;-48
2023/03/25 02:52:27;;;;;;;5.93;3.27;;;9.20;99.90;;;;;;5062073;28;20648;-57
2023/03/25 02:55:00;;;;;;;5.33;3.23;;;9.20;99.90;;;;;;5041943;28;20286;-48
2023/03/25 02:57:33;;;;;;;4.63;3.17;;;9.20;99.90;;;;;;5058819;28;20256;-57
2023/03/25 03:00:05;;;;;;;5.87;3.23;;;9.20;99.90;;;;;;5063526;28;20629;-49
2023/03/25 03:02:33;;;;;;;4.70;3.60;;;9.20;99.90;;;;;;5050952;28;20206;-49
2023/03/25 03:05:01;;;;;;;6.20;3.50;;;9.10;99.90;;;;;;5061947;28;20768;-49
2023/03/25 03:07:32;;;;;;;6.20;3.10;;;9.10;99.90;;;;;;5056988;28;20275;-59
2023/03/25 03:10:18;;;;;;;5.03;3.40;;;9.10;99.90;;;;;;5059223;28;20212;-49
2023/03/25 03:12:58;;;;;;;6.10;3.67;;;9.10;99.90;;;;;;5059434;28;20279;-54
2023/03/25 03:15:35;;;;;;;6.70;3.03;;;9.10;99.90;;;;;;5054387;28;20589;-58
2023/03/25 03:18:14;;;;;;;7.90;2.50;;;9.10;99.90;;;;;;5061978;28;20297;-50
2023/03/25 03:20:49;;;;;;;7.30;2.97;;;9.10;99.90;;;;;;5060283;28;20190;-48
2023/03/25 03:23:24;;;;;;;4.57;3.03;;;9.10;99.90;;;;;;5057445;28;20190;-57
2023/03/25 03:25:55;;;;;;;10.80;3.00;;;9.20;99.90;;;;;;5046425;28;20256;-53
2023/03/25 03:28:27;;;;;;;4.73;2.60;;;9.10;99.90;;;;;;5060680;28;20219;-57
2023/03/25 03:31:01;;;;;;;4.67;2.90;;;9.10;99.90;;;;;;5062234;28;20202;-53
2023/03/25 03:33:37;;;;;;;4.63;3.07;;;9.10;99.90;;;;;;5053523;28;20692;-57
2023/03/25 03:36:08;;;;;;;7.43;3.23;;;9.10;99.90;;;;;;5063081;28;20233;-52
2023/03/25 03:38:41;;;;;;;5.03;3.07;;;9.10;99.90;;;;;;5054525;28;20221;-50
2023/03/25 03:41:11;;;;;;;7.13;4.07;;;9.10;99.90;;;;;;5047393;28;20272;-53
2023/03/25 03:43:44;;;;;;;5.23;3.23;;;9.10;99.90;;;;;;5058553;28;20392;-53
2023/03/25 03:46:15;;;;;;;6.87;2.77;;;9.10;99.90;;;;;;5062378;28;20567;-53
2023/03/25 03:48:47;;;;;;;7.93;2.93;;;9.10;99.90;;;;;;5059853;28;20898;-52
2023/03/25 03:51:20;;;;;;;5.20;3.07;;;9.10;99.90;;;;;;5062399;28;20661;-57
2023/03/25 03:53:51;;;;;;;5.00;3.13;;;9.10;99.90;;;;;;5060784;28;20279;-52
2023/03/25 03:56:23;;;;;;;5.60;2.50;;;9.10;99.90;;;;;;5054825;28;20229;-56
2023/03/25 03:58:57;;;;;;;8.43;2.83;;;9.10;99.90;;;;;;5056952;28;20199;-49
2023/03/25 04:01:33;;;;;;;6.83;3.17;;;9.10;99.90;;;;;;5059717;28;20199;-58
2023/03/25 04:04:02;;;;;;;3.20;2.63;;;9.00;99.90;;;;;;5062288;28;20198;-50
2023/03/25 04:06:37;;;;;;;5.37;2.70;;;9.00;99.90;;;;;;5059208;28;20677;-55
2023/03/25 04:09:10;;;;;;;3.83;3.23;;;9.00;99.90;;;;;;5062636;28;20202;-52
2023/03/25 04:11:43;;;;;;;5.37;2.87;;;9.00;99.90;;;;;;5058700;28;20298;-49
2023/03/25 04:14:12;;;;;;;4.57;2.87;;;9.00;99.90;;;;;;5049148;28;20225;-52
2023/03/25 04:16:39;;;;;;;2.67;2.40;;;9.00;99.90;;;;;;5057069;28;20242;-51
2023/03/25 04:19:08;;;;;;;5.93;3.13;;;8.90;99.90;;;;;;5065161;28;20199;-51
2023/03/25 04:21:34;;;;;;;4.50;2.97;;;8.90;99.90;;;;;;5062369;28;20205;-50
2023/03/25 04:24:01;;;;;;;4.27;2.70;;;9.00;99.90;;;;;;5064977;28;20214;-53
2023/03/25 04:26:32;;;;;;;3.57;2.80;;;9.00;99.90;;;;;;5062275;28;20203;-58
2023/03/25 04:29:02;;;;;;;3.30;2.70;;;9.00;99.90;;;;;;5049724;28;20696;-52
2023/03/25 04:31:30;;;;;;;3.77;2.40;;;9.00;99.90;;;;;;5062065;28;20294;-59
2023/03/25 04:33:58;;;;;;;4.73;2.70;;;8.90;99.90;;;;;;5065669;28;20276;-56
2023/03/25 04:36:27;;;;;;;3.80;2.53;;;9.00;99.90;;;;;;5063302;28;20199;-57
2023/03/25 04:38:54;;;;;;;4.30;2.37;;;9.00;99.90;;;;;;5065408;28;20282;-50
2023/03/25 04:41:21;;;;;;;5.47;2.60;;;9.00;99.90;;;;;;5063575;28;20828;-58
2023/03/25 04:43:48;;;;;;;4.20;2.00;;;9.00;99.90;;;;;;5048465;28;20205;-50
2023/03/25 04:46:18;;;;;;;3.03;2.70;;;9.00;99.90;;;;;;5063440;28;20772;-57
2023/03/25 04:48:46;;;;;;;4.23;2.27;;;9.00;99.90;;;;;;5056931;28;20201;-51
2023/03/25 04:51:14;;;;;;;4.43;2.87;;;9.00;99.90;;;;;;5058026;28;20198;-55
2023/03/25 04:53:42;;;;;;;4.93;2.70;;;9.00;99.90;;;;;;5056277;28;20229;-50
2023/03/25 04:56:14;;;;;;;3.37;2.23;;;8.90;99.90;;;;;;5065429;28;20684;-50
2023/03/25 04:58:42;;;;;;;3.53;2.13;;;8.70;99.90;;;;;;5046486;28;22231;-48
2023/03/25 05:01:20;;;;;;;4.40;2.13;;;8.70;99.90;;;;;;5057052;28;20207;-50
2023/03/25 05:03:49;;;;;;;3.07;1.70;;;8.60;99.90;;;;;;5058898;28;20273;-48
2023/03/25 05:06:16;;;;;;;3.17;1.97;;;8.50;99.90;;;;;;5064224;28;20732;-57
2023/03/25 05:08:43;;;;;;;4.00;2.30;;;8.40;99.90;;;;;;5054493;28;20272;-50
2023/03/25 05:11:10;;;;;;;2.57;2.13;;;8.40;99.90;;;;;;5064788;28;20661;-52
2023/03/25 05:13:37;;;;;;;4.73;2.47;;;8.40;99.90;;;;;;5061371;28;20211;-52
2023/03/25 05:16:05;;;;;;;7.17;2.90;;;8.30;99.90;;;;;;5046074;28;20213;-51
2023/03/25 05:18:36;;;;;;;2.90;2.70;;;8.30;99.90;;;;;;5060634;28;20218;-48
2023/03/25 05:21:04;;;;;;;5.33;3.00;;;8.30;99.90;;;;;;5064940;28;20290;-52
2023/03/25 05:23:30;;;;;;;5.90;3.70;;;8.20;99.90;;;;;;5053624;28;20194;-58
2023/03/25 05:25:57;;;;;;;5.13;2.60;;;8.30;99.90;;;;;;5064153;28;20202;-51
2023/03/25 05:28:24;;;;;;;6.07;3.07;;;8.30;99.90;;;;;;5056048;28;20241;-55
2023/03/25 05:30:51;;;;;;;5.03;3.30;;;8.30;99.90;;;;;;5047659;28;20669;-49
2023/03/25 05:33:19;;;;;;;4.10;3.00;;;8.30;99.90;;;;;;5062226;28;20229;-57
2023/03/25 05:35:48;;;;;;;4.00;2.70;;;8.20;99.90;;;;;;5062450;28;20203;-51
2023/03/25 05:38:17;;;;;;;3.73;2.80;;;8.20;99.90;;;;;;5064072;28;20540;-57
2023/03/25 05:40:45;;;;;;;3.60;2.70;;;8.20;99.90;;;;;;5062250;28;20923;-49
2023/03/25 05:43:13;;;;;;;3.07;2.77;;;8.20;99.90;;;;;;5047582;28;20287;-52
2023/03/25 05:45:40;;;;;;;3.13;2.83;;;8.20;99.90;;;;;;5052786;28;20203;-52
2023/03/25 05:48:07;;;;;;;4.50;3.07;;;8.20;99.90;;;;;;5056160;28;20229;-51
2023/03/25 05:50:36;;;;;;;4.77;2.87;;;8.20;99.90;;;;;;5059045;28;20685;-57
2023/03/25 05:53:04;;;;;;;4.93;2.60;;;8.20;99.90;;;;;;5063721;28;20210;-53
2023/03/25 05:55:31;;;;;;;4.20;2.87;;;8.20;99.90;;;;;;5051328;28;20210;-57
2023/03/25 05:57:57;;;;;;;6.43;3.20;;;8.30;99.90;;;;;;5053331;28;20589;-48
2023/03/25 06:00:24;;;;;;;5.77;3.23;;;8.20;99.90;;;;;;5044324;28;20301;-58
2023/03/25 06:02:51;;;;;;;4.23;2.70;;;8.20;99.90;;;;;;5049427;28;20203;-49
2023/03/25 06:05:22;;;;;;;11.27;3.37;;;8.30;99.90;;;;;;5061337;28;20225;-58
2023/03/25 06:07:50;;;;;;;6.47;3.47;;;8.20;99.90;;;;;;5060439;28;20226;-51
2023/03/25 06:10:19;;;;;;;3.57;2.60;;;8.30;99.90;;;;;;5061117;28;20199;-57
2023/03/25 06:12:51;;;;;;;4.80;2.73;;;8.30;99.90;;;;;;5053288;28;22724;-51
2023/03/25 06:15:20;;;;;;;7.00;2.83;;;8.30;99.90;;;;;;5054450;28;20199;-59
2023/03/25 06:17:47;;;;;;;4.50;2.80;;;8.30;99.90;;;;;;5045867;28;20231;-50
2023/03/25 06:20:18;;;;;;;4.03;2.60;;;8.40;99.90;;;;;;5061624;28;20207;-55
2023/03/25 06:22:46;;;;;;;5.07;2.97;;;8.40;99.90;;;;;;5059494;28;20191;-50
2023/03/25 06:25:16;;;;;;;4.67;3.30;;;8.50;99.90;;;;;;5059154;28;20195;-50
2023/03/25 06:27:45;;;;;;;5.63;3.37;;;8.50;99.90;;;;;;5057953;28;20266;-50
2023/03/25 06:30:14;;;;;;;4.93;3.00;;;8.50;99.90;;;;;;5055164;28;20298;-50
2023/03/25 06:32:41;;;;;;;6.37;3.40;;;8.50;99.90;;;;;;5040973;28;20296;-51
2023/03/25 06:35:10;;;;;;;6.67;2.93;;;8.50;99.90;;;;;;5056003;28;20230;-51
2023/03/25 06:37:38;;;;;;;8.00;2.90;;;8.60;99.90;;;;;;5057410;28;20211;-52
2023/03/25 06:40:12;;;;;;;2.70;2.33;;;8.60;99.90;;;;;;5054279;28;20197;-57
2023/03/25 06:42:40;;;;;;;6.90;3.20;;;8.60;99.90;;;;;;5084245;28;20261;-53
2023/03/25 06:45:44;;;;;;;8.13;3.53;;;8.60;99.90;;;;;;5049935;28;20210;-50
2023/03/25 06:48:33;;;;;;;5.43;3.50;;;8.70;99.90;;;;;;5040517;28;20929;-51
2023/03/25 06:51:00;;;;;;;8.23;3.30;;;8.70;99.90;;;;;;5055458;28;20194;-50
2023/03/25 06:53:27;;;;;;;3.13;2.83;;;8.70;99.90;;;;;;5058156;28;20289;-56
2023/03/25 06:55:56;;;;;;;10.37;3.40;;;8.70;99.90;;;;;;5060999;28;20687;-50
2023/03/25 06:58:44;;;;;;;6.70;3.77;;;8.80;99.90;;;;;;5058122;28;20255;-51
2023/03/25 07:01:13;;;;;;;8.43;3.47;;;8.80;99.90;;;;;;5053663;28;20233;-50
2023/03/25 07:03:39;;;;;;;9.27;3.40;;;8.90;99.90;;;;;;5039903;28;20976;-52
2023/03/25 07:06:07;;;;;;;5.50;3.53;;;8.90;99.90;;;;;;5055638;28;20209;-51
2023/03/25 07:08:34;;;;;;;5.27;3.00;;;9.00;99.90;;;;;;5055493;28;20371;-58
2023/03/25 07:11:02;;;;;;;6.30;3.37;;;9.00;99.90;;;;;;5058946;28;20289;-50
2023/03/25 07:13:30;;;;;;;5.67;3.23;;;9.00;99.90;;;;;;5057156;28;20234;-59
2023/03/25 07:15:57;;;;;;;8.77;3.57;;;9.10;99.90;;;;;;5060028;28;20286;-50
2023/03/25 07:18:26;;;;;;;6.87;3.20;;;9.20;99.90;;;;;;5033892;28;20230;-59
2023/03/25 07:20:54;;;;;;;4.57;3.30;;;9.30;99.90;;;;;;5050327;28;20209;-48
2023/03/25 07:23:20;;;;;;;8.87;4.43;;;9.40;99.90;;;;;;5059300;28;20318;-58
2023/03/25 07:25:47;;;;;;;8.47;3.33;;;9.50;99.90;;;;;;5058356;28;20419;-49
2023/03/25 07:28:14;;;;;;;6.63;3.33;;;9.40;99.90;;;;;;5058545;28;20222;-55
2023/03/25 07:30:46;;;;;;;6.03;3.27;;;9.50;99.90;;;;;;5051296;28;20201;-47
2023/03/25 07:33:13;;;;;;;9.03;3.13;;;9.50;99.90;;;;;;5055609;28;20237;-59
2023/03/25 07:35:41;;;;;;;5.63;3.03;;;9.40;99.90;;;;;;5038780;28;22685;-49
2023/03/25 07:38:08;;;;;;;5.23;2.87;;;9.40;99.90;;;;;;5061519;28;20214;-50
2023/03/25 07:40:36;;;;;;;9.33;3.40;;;9.40;99.90;;;;;;5050031;28;20210;-49
2023/03/25 07:43:02;;;;;;;4.27;2.93;;;9.30;99.90;;;;;;5061275;28;20217;-54
2023/03/25 07:45:36;;;;;;;6.20;3.10;;;9.40;99.90;;;;;;5059442;28;20195;-51
2023/03/25 07:48:03;;;;;;;4.53;3.00;;;9.40;99.90;;;;;;5047724;28;20308;-56
2023/03/25 07:50:30;;;;;;;7.47;2.83;;;9.30;99.90;;;;;;5046443;28;20290;-48
2023/03/25 07:52:59;;;;;;;6.60;2.87;;;9.30;99.90;;;;;;5060600;28;20692;-51
2023/03/25 07:55:25;;;;;;;4.90;2.93;;;9.20;99.90;;;;;;5062793;28;20187;-52
2023/03/25 07:57:52;;;;;;;9.57;3.13;;;9.30;99.90;;;;;;5065549;28;20234;-51
2023/03/25 08:00:20;;;;;;;4.37;3.00;;;9.30;99.90;;;;;;5062268;28;20202;-56
2023/03/25 08:02:47;;;;;;;4.13;2.90;;;9.30;99.90;;;;;;5060495;28;20194;-49
2023/03/25 08:05:19;;;;;;;7.27;3.17;;;9.40;99.90;;;;;;5041798;28;20717;-58
2023/03/25 08:07:47;;;;;;;6.97;2.60;;;9.40;99.90;;;;;;5060650;28;20226;-51
2023/03/25 08:10:15;;;;;;;9.07;3.43;;;9.40;99.90;;;;;;5063582;28;20210;-57
2023/03/25 08:12:43;;;;;;;7.83;2.50;;;9.40;99.90;;;;;;5059278;28;20545;-48
2023/03/25 08:15:12;;;;;;;6.43;2.47;;;9.50;99.90;;;;;;5061936;28;20264;-58
2023/03/25 08:17:39;;;;;;;6.37;2.40;;;9.50;99.90;;;;;;5057790;28;20832;-51
2023/03/25 08:20:08;;;;;;;4.53;2.23;;;9.50;99.90;;;;;;5050950;28;20282;-58
2023/03/25 08:22:35;;;;;;;4.70;2.17;;;9.50;99.90;;;;;;5050461;28;20209;-51
2023/03/25 08:25:01;;;;;;;5.07;2.43;;;9.40;99.90;;;;;;5061024;28;20199;-57
2023/03/25 08:27:29;;;;;;;3.00;2.27;;;9.40;99.90;;;;;;5059868;28;20206;-49
2023/03/25 08:29:58;;;;;;;6.13;2.50;;;9.30;99.90;;;;;;5064861;28;20205;-55
2023/03/25 08:32:26;;;;;;;8.20;2.70;;;9.30;99.90;;;;;;5057309;28;20187;-52
2023/03/25 08:34:54;;;;;;;6.47;2.33;;;9.30;99.90;;;;;;5047570;28;20252;-48
2023/03/25 08:37:22;;;;;;;5.63;2.50;;;9.30;99.90;;;;;;5039279;28;20225;-57
2023/03/25 08:39:49;;;;;;;5.63;2.70;;;9.20;99.90;;;;;;5056375;28;20210;-53
2023/03/25 08:42:17;;;;;;;3.67;2.50;;;9.30;99.90;;;;;;5053719;28;20677;-56
2023/03/25 08:44:45;;;;;;;6.57;2.30;;;9.30;99.90;;;;;;5062434;28;20198;-52
2023/03/25 08:47:12;;;;;;;3.87;2.50;;;9.40;99.90;;;;;;5061577;28;20217;-56
2023/03/25 08:49:39;;;;;;;6.47;2.50;;;9.40;99.90;;;;;;5055511;28;20207;-48
2023/03/25 08:52:07;;;;;;;7.70;2.87;;;9.50;99.90;;;;;;5043012;28;20202;-55
2023/03/25 08:54:34;;;;;;;3.63;2.07;;;9.40;99.90;;;;;;5046830;28;20210;-50
2023/03/25 08:57:01;;;;;;;5.47;2.00;;;9.40;99.90;;;;;;5057001;28;20221;-52
2023/03/25 08:59:29;;;;;;;4.47;2.63;;;9.50;99.90;;;;;;5056688;28;20210;-53
2023/03/25 09:01:57;;;;;;;4.30;2.47;;;9.50;99.90;;;;;;5062027;28;20263;-54
2023/03/25 09:04:25;;;;;;;5.33;2.00;;;9.60;99.90;;;;;;5053779;28;20257;-59
2023/03/25 09:06:52;;;;;;;3.60;2.20;;;9.60;99.90;;;;;;5042159;28;20248;-54
2023/03/25 09:09:20;;;;;;;5.50;2.30;;;9.60;99.90;;;;;;5049692;28;20205;-58
2023/03/25 09:11:46;;;;;;;5.83;2.20;;;9.60;99.90;;;;;;5060076;28;20293;-48
2023/03/25 09:14:13;;;;;;;5.63;2.30;;;9.50;99.90;;;;;;5054983;28;20309;-58
2023/03/25 09:16:40;;;;;;;4.53;1.93;;;9.50;99.90;;;;;;5061350;28;20989;-56
2023/03/25 09:19:09;;;;;;;4.70;1.57;;;9.40;99.90;;;;;;5058679;28;20214;-58
2023/03/25 09:21:37;;;;;;;3.00;1.27;;;9.30;99.90;;;;;;5050604;28;20191;-50
2023/03/25 09:24:04;;;;;;;1.90;1.30;;;9.20;99.90;;;;;;5044265;28;20195;-54
2023/03/25 09:26:30;;;;;;;2.33;1.27;;;9.20;99.90;;;;;;5046137;28;20299;-52
2023/03/25 09:28:59;;;;;;;2.90;1.13;;;9.20;99.90;;;;;;5056560;28;20311;-49
2023/03/25 09:31:26;;;;;;;3.53;1.40;;;9.10;99.90;;;;;;5059344;28;20681;-52
2023/03/25 09:33:54;;;;;;;2.70;1.30;;;9.10;99.90;;;;;;5064243;28;20552;-51
2023/03/25 09:36:44;;;;;;;1.40;1.03;;;9.10;99.90;;;;;;5056326;28;20256;-51
2023/03/25 09:39:11;;;;;;;1.37;1.23;;;9.10;99.90;;;;;;5041328;28;20293;-57
2023/03/25 09:42:30;;;;;;;1.70;0.93;;;9.10;99.90;;;;;;5057212;28;20655;-55
2023/03/25 09:45:05;;;;;;;4.60;1.03;;;9.10;99.90;;;;;;5039920;28;20215;-52
2023/03/25 09:47:34;;;;;;;1.43;1.30;;;9.10;99.90;;;;;;5059514;28;20237;-51
2023/03/25 09:50:12;;;;;;;1.63;0.77;;;9.10;99.90;;;;;;5053199;28;20646;-58
2023/03/25 09:52:50;;;;;;;3.30;0.93;;;9.00;99.90;;;;;;5056905;28;20681;-51
2023/03/25 09:55:23;;;;;;;6.43;1.10;;;9.00;99.90;;;;;;5041866;28;20217;-52
2023/03/25 09:57:55;;;;;;;2.23;1.10;;;9.00;99.90;;;;;;5062705;28;20210;-54
2023/03/25 10:00:46;;;;;;;1.77;0.73;;;9.00;99.90;;;;;;5057493;28;20275;-50
2023/03/25 10:03:24;;;;;;;2.90;1.43;;;9.00;99.90;;;;;;5061354;28;20206;-58
2023/03/25 10:06:17;;;;;;;2.33;1.00;;;9.10;99.90;;;;;;5058385;28;20194;-54
2023/03/25 10:08:57;;;;;;;2.67;0.97;;;9.10;99.90;;;;;;5040869;28;20234;-57
2023/03/25 10:11:33;;;;;;;1.70;0.90;;;9.20;99.90;;;;;;5054648;28;20688;-51
2023/03/25 10:14:08;;;;;;;3.50;0.80;;;9.20;99.90;;;;;;5049877;28;20198;-56
2023/03/25 10:17:06;;;;;;;2.37;1.13;;;9.20;99.90;;;;;;5059463;28;20237;-53
2023/03/25 10:19:53;;;;;;;2.13;0.70;;;9.30;99.90;;;;;;5057911;28;20822;-52
2023/03/25 10:22:27;;;;;;;2.27;0.97;;;9.40;99.90;;;;;;5057725;28;20617;-52
2023/03/25 10:25:22;;;;;;;0.73;0.70;;;9.60;99.90;;;;;;5044513;28;20210;-55
2023/03/25 10:27:51;;;;;;;5.20;1.27;;;9.80;99.90;;;;;;5060452;28;20963;-55
2023/03/25 10:30:22;;;;;;;4.77;1.00;;;9.90;99.90;;;;;;5041444;28;20214;-52
2023/03/25 10:32:52;;;;;;;2.47;0.90;;;10.10;99.90;;;;;;5054278;28;20222;-51
2023/03/25 10:35:23;;;;;;;2.53;1.40;;;10.20;99.90;;;;;;5055299;28;20331;-54
2023/03/25 10:37:56;;;;;;;1.13;0.83;;;10.30;99.90;;;;;;5053895;28;20701;-52
2023/03/25 10:40:28;;;;;;;2.53;1.10;;;10.40;99.90;;;;;;5043667;28;20292;-57
2023/03/25 10:43:12;;;;;;;3.63;1.23;;;10.50;99.90;;;;;;5055376;28;20210;-53
2023/03/25 10:46:03;;;;;;;4.60;1.50;;;10.40;99.90;;;;;;5051830;28;20576;-54
2023/03/25 10:48:32;;;;;;;3.50;1.23;;;10.50;99.90;;;;;;5062628;28;20816;-51
2023/03/25 10:51:04;;;;;;;2.17;1.20;;;10.50;99.90;;;;;;5059690;28;20825;-53
2023/03/25 10:53:32;;;;;;;3.10;1.40;;;10.60;99.90;;;;;;5052775;28;20207;-54
2023/03/25 10:56:04;;;;;;;3.43;1.20;;;10.50;99.90;;;;;;5034166;28;20221;-53
2023/03/25 10:58:34;;;;;;;4.70;1.93;;;10.50;99.90;;;;;;5061548;28;20293;-56
2023/03/25 11:01:10;;;;;;;7.50;1.97;;;10.50;99.90;;;;;;5050417;28;20585;-57
2023/03/25 11:03:39;;;;;;;2.07;1.40;;;10.40;99.90;;;;;;5062171;28;20209;-56
2023/03/25 11:06:07;;;;;;;3.53;1.80;;;10.40;99.90;;;;;;5058168;28;20187;-57
2023/03/25 11:08:34;;;;;;;4.23;1.70;;;10.30;99.90;;;;;;5056137;28;20223;-53
2023/03/25 11:11:07;;;;;;;7.10;1.57;;;10.30;99.90;;;;;;5042888;28;20206;-52
2023/03/25 11:13:35;;;;;;;2.70;1.40;;;10.30;99.90;;;;;;5056652;28;20210;-53
2023/03/25 11:16:03;;;;;;;8.13;1.80;;;10.20;99.90;;;;;;5052098;28;20206;-51
2023/03/25 11:18:34;;;;;;;3.97;1.60;;;10.10;99.90;;;;;;5061195;28;20214;-54
2023/03/25 11:21:03;;;;;;;2.77;1.20;;;10.00;99.90;;;;;;5054122;28;20206;-53
2023/03/25 11:23:33;;;;;;;1.77;1.20;;;9.80;99.90;;;;;;5041403;28;20203;-52
2023/03/25 11:26:06;;;;;;;2.30;1.23;;;9.50;99.90;;;;;;5041365;28;20209;-50
2023/03/25 11:28:38;;;;;;;2.10;0.70;;;9.20;99.90;;;;;;5044034;28;20333;-55
2023/03/25 11:31:17;;;;;;;2.27;0.70;;;9.00;99.90;;;;;;5059570;28;20209;-51
2023/03/25 11:33:46;;;;;;;1.17;0.50;;;8.80;99.90;;;;;;5056886;28;20217;-53
2023/03/25 11:36:22;;;;;;;1.97;1.00;;;8.60;99.90;;;;;;5056309;28;20287;-52
2023/03/25 11:38:55;;;;;;;1.50;0.67;;;8.50;99.90;;;;;;5051860;28;20194;-52
2023/03/25 11:41:24;;;;;;;0.60;0.60;;;8.40;99.90;;;;;;5028591;28;20207;-52
2023/03/25 11:43:51;;;;;;;1.47;0.60;;;8.40;99.90;;;;;;5041684;28;22047;-52
2023/03/25 11:46:20;;;;;;;1.83;0.53;;;8.40;99.90;;;;;;5060550;28;20183;-52
2023/03/25 11:48:48;;;;;;;0.93;0.70;;;8.50;99.90;;;;;;5045661;28;20724;-53
2023/03/25 11:51:19;;;;;;;0.90;0.80;;;8.70;99.90;;;;;;5059746;28;20199;-56
2023/03/25 11:53:50;;;;;;;1.53;0.93;;;9.00;99.90;;;;;;5049235;28;20750;-53
2023/03/25 11:56:24;;;;;;;1.50;1.00;;;9.20;99.90;;;;;;5055556;28;20225;-54
2023/03/25 11:58:52;;;;;;;2.37;1.30;;;9.40;99.90;;;;;;5027472;28;21026;-52
2023/03/25 12:01:26;;;;;;;1.87;0.90;;;9.60;99.90;;;;;;5056330;28;20682;-54
2023/03/25 12:04:08;;;;;;;2.10;0.80;;;9.70;99.90;;;;;;5048207;28;20205;-52
2023/03/25 12:06:34;;;;;;;2.33;1.03;;;9.70;99.90;;;;;;5058225;28;20207;-51
2023/03/25 12:09:07;;;;;;;3.47;1.50;;;9.80;99.90;;;;;;5054344;28;20877;-51
2023/03/25 12:11:42;;;;;;;3.30;1.63;;;10.00;99.90;;;;;;5049285;28;20226;-55
2023/03/25 12:14:22;;;;;;;4.60;1.20;;;10.10;99.90;;;;;;5052109;28;20290;-55
2023/03/25 12:17:21;;;;;;;1.67;0.90;;;10.20;99.90;;;;;;5060112;28;20241;-56
2023/03/25 12:19:57;;;;;;;2.63;1.10;;;10.40;99.90;;;;;;5048917;28;20297;-56
2023/03/25 12:22:37;;;;;;;2.60;0.70;;;10.50;99.90;;;;;;5056657;28;20209;-55
2023/03/25 12:25:17;;;;;;;1.30;0.70;;;10.40;99.90;;;;;;5053596;28;20252;-56
2023/03/25 12:27:59;;;;;;;3.13;0.87;;;10.30;99.90;;;;;;5038611;28;20219;-53
2023/03/25 12:30:40;;;;;;;4.00;1.07;;;10.20;99.90;;;;;;5053648;28;20206;-55
2023/03/25 12:33:20;;;;;;;2.33;0.90;;;10.20;99.90;;;;;;5049205;28;20331;-56
2023/03/25 12:35:58;;;;;;;2.93;1.00;;;10.30;99.90;;;;;;5048981;28;20250;-55
2023/03/25 12:38:39;;;;;;;1.60;1.10;;;10.20;99.90;;;;;;5052382;28;20218;-54
2023/03/25 12:41:17;;;;;;;2.33;0.80;;;10.20;99.90;;;;;;5059316;28;20202;-56
2023/03/25 12:44:01;;;;;;;4.03;1.30;;;10.10;99.90;;;;;;5046915;28;20210;-57
2023/03/25 12:46:52;;;;;;;2.90;0.90;;;10.10;99.90;;;;;;5046248;28;20253;-57
2023/03/25 12:49:34;;;;;;;4.10;1.10;;;10.00;99.90;;;;;;5054668;28;20216;-54
2023/03/25 12:52:07;;;;;;;6.57;1.20;;;10.00;99.90;;;;;;5062607;28;20235;-56
2023/03/25 12:54:48;;;;;;;2.03;0.97;;;9.90;99.90;;;;;;5065767;28;20202;-55
2023/03/25 12:57:27;;;;;;;2.63;1.00;;;9.90;99.90;;;;;;5057959;28;20242;-55
2023/03/25 13:00:07;;;;;;;4.53;1.20;;;9.80;99.90;;;;;;5047141;28;20237;-56
2023/03/25 13:03:02;;;;;;;1.63;1.10;;;9.70;99.90;;;;;;5056790;28;20206;-57
2023/03/25 13:05:34;;;;;;;3.30;0.83;;;9.70;99.90;;;;;;5053218;28;20203;-56
2023/03/25 13:08:07;;;;;;;4.97;1.03;;;9.60;99.90;;;;;;5063820;28;20218;-54
2023/03/25 13:10:36;;;;;;;1.53;0.90;;;9.60;99.90;;;;;;5065558;28;20778;-56
2023/03/25 13:13:11;;;;;;;2.53;1.03;;;9.60;99.90;;;;;;5058006;28;20575;-53
2023/03/25 13:15:43;;;;;;;0.90;0.50;;;9.60;99.90;;;;;;5049299;28;20783;-56
2023/03/25 13:18:13;;;;;;;2.43;0.60;;;9.50;99.90;;;;;;5049512;28;20854;-55